Time;durP1;ratioP1;P1;durP2;ratioP2;P2;SDS_P1;SDS_P2;PMS_P1;PMS_P2;Temp;Humidity;BMP_temperature;BMP_pressure;BME280_temperature;BME280_humidity;BME280_pressure;Samples;Min_cycle;Max_cycle;Signal;HPM_P1;HPM_P2
2021/12/03 00:02:00;;;;;;;10.20;4.30;;;-0.30;99.90;;;;;;5018308;28;20111;-68
2021/12/03 00:04:25;;;;;;;7.40;4.07;;;-0.30;99.90;;;;;;5036033;28;20049;-67
2021/12/03 00:06:51;;;;;;;11.48;4.60;;;-0.20;99.90;;;;;;5002247;28;20405;-68
2021/12/03 00:09:16;;;;;;;7.78;4.47;;;-0.20;99.90;;;;;;5019188;28;20393;-68
2021/12/03 00:11:42;;;;;;;13.05;4.90;;;-0.20;99.90;;;;;;5019249;28;20120;-69
2021/12/03 00:14:08;;;;;;;17.83;5.07;;;-0.20;99.90;;;;;;5036298;28;20056;-67
2021/12/03 00:16:33;;;;;;;11.65;4.93;;;-0.20;99.90;;;;;;5036466;28;20045;-67
2021/12/03 00:18:59;;;;;;;16.73;4.43;;;-0.20;99.90;;;;;;5018333;28;20141;-68
2021/12/03 00:21:26;;;;;;;7.68;4.65;;;-0.20;99.90;;;;;;5018406;28;20049;-67
2021/12/03 00:23:54;;;;;;;12.48;4.88;;;-0.20;99.90;;;;;;5018823;28;20045;-68
2021/12/03 00:26:19;;;;;;;5.85;3.85;;;-0.20;99.90;;;;;;5036117;28;20067;-67
2021/12/03 00:28:45;;;;;;;9.15;4.75;;;-0.20;99.90;;;;;;5018435;28;20065;-67
2021/12/03 00:31:12;;;;;;;6.72;3.97;;;-0.20;99.90;;;;;;5020786;28;20366;-69
2021/12/03 00:33:38;;;;;;;11.90;5.00;;;-0.20;99.90;;;;;;4999303;28;20042;-68
2021/12/03 00:36:07;;;;;;;12.18;4.63;;;-0.20;99.90;;;;;;4981888;28;20057;-66
2021/12/03 00:38:38;;;;;;;14.45;4.85;;;-0.10;99.90;;;;;;5016007;28;20077;-67
2021/12/03 00:41:06;;;;;;;9.88;4.53;;;-0.10;99.90;;;;;;4998635;28;20038;-67
2021/12/03 00:43:33;;;;;;;10.90;4.63;;;-0.20;99.90;;;;;;4998323;28;20573;-68
2021/12/03 00:46:05;;;;;;;9.93;4.25;;;-0.20;99.90;;;;;;4999303;28;20076;-67
2021/12/03 00:48:30;;;;;;;12.60;4.65;;;-0.10;99.90;;;;;;4998536;28;20378;-68
2021/12/03 00:50:56;;;;;;;11.52;4.38;;;0.00;99.90;;;;;;5016085;28;20125;-68
2021/12/03 00:53:22;;;;;;;13.48;4.55;;;-0.10;99.90;;;;;;4998451;28;20054;-68
2021/12/03 00:55:48;;;;;;;14.55;5.13;;;-0.10;99.90;;;;;;4997986;28;20061;-69
2021/12/03 00:58:14;;;;;;;11.25;4.78;;;-0.10;99.90;;;;;;4998839;28;20089;-67
2021/12/03 01:00:39;;;;;;;13.98;4.90;;;0.00;99.90;;;;;;5027336;28;20501;-67
2021/12/03 01:03:05;;;;;;;10.20;4.97;;;0.00;99.90;;;;;;5018390;28;20481;-69
2021/12/03 01:05:33;;;;;;;13.30;5.43;;;0.00;99.90;;;;;;5035550;28;20096;-67
2021/12/03 01:07:59;;;;;;;13.02;5.78;;;0.00;99.90;;;;;;5018074;28;20164;-68
2021/12/03 01:10:25;;;;;;;12.00;5.30;;;0.00;99.90;;;;;;5035237;28;20061;-69
2021/12/03 01:12:52;;;;;;;10.45;4.95;;;0.10;99.90;;;;;;5017384;28;20046;-69
2021/12/03 01:15:22;;;;;;;16.65;6.55;;;0.10;99.90;;;;;;5035494;28;20053;-67
2021/12/03 01:17:48;;;;;;;12.43;5.32;;;0.10;99.90;;;;;;5035309;28;20045;-67
2021/12/03 01:20:14;;;;;;;11.88;5.57;;;0.10;99.90;;;;;;5018003;28;20072;-67
2021/12/03 01:22:42;;;;;;;20.85;5.63;;;0.10;99.90;;;;;;5017824;28;20057;-68
2021/12/03 01:25:10;;;;;;;13.60;5.68;;;0.20;99.90;;;;;;5017447;28;20045;-68
2021/12/03 01:27:35;;;;;;;24.25;6.35;;;0.20;99.90;;;;;;5017553;28;20059;-68
2021/12/03 01:30:03;;;;;;;10.85;5.57;;;0.20;99.90;;;;;;5027761;28;20042;-67
2021/12/03 01:32:28;;;;;;;13.20;6.00;;;0.30;99.90;;;;;;4998269;28;20046;-67
2021/12/03 01:34:54;;;;;;;11.85;5.60;;;0.30;99.90;;;;;;4998035;28;20045;-69
2021/12/03 01:37:19;;;;;;;15.00;6.40;;;0.30;99.90;;;;;;5015475;28;20045;-69
2021/12/03 01:39:45;;;;;;;17.10;7.18;;;0.90;99.90;;;;;;4997840;28;20352;-67
2021/12/03 01:42:10;;;;;;;16.52;6.88;;;0.40;99.90;;;;;;4997710;28;20054;-67
2021/12/03 01:44:36;;;;;;;23.17;7.68;;;0.40;99.90;;;;;;4998111;28;20038;-68
2021/12/03 01:47:02;;;;;;;17.15;7.20;;;0.50;99.90;;;;;;4997838;28;20124;-68
2021/12/03 01:49:27;;;;;;;21.40;8.43;;;0.50;99.90;;;;;;5015061;28;20458;-68
2021/12/03 01:51:53;;;;;;;17.33;8.50;;;0.50;99.90;;;;;;4997580;28;20046;-66
2021/12/03 01:54:19;;;;;;;20.25;8.68;;;0.50;99.90;;;;;;5014571;28;20455;-68
2021/12/03 01:56:44;;;;;;;19.77;8.98;;;0.50;99.90;;;;;;4998086;28;20054;-70
2021/12/03 01:59:10;;;;;;;17.83;8.85;;;0.50;99.90;;;;;;4999209;28;20052;-70
2021/12/03 02:01:36;;;;;;;20.50;8.75;;;0.50;99.90;;;;;;5016868;28;20378;-68
2021/12/03 02:04:04;;;;;;;17.98;8.77;;;0.50;99.90;;;;;;5016927;28;20046;-67
2021/12/03 02:06:31;;;;;;;22.67;9.02;;;0.50;99.90;;;;;;5034601;28;20470;-68
2021/12/03 02:08:57;;;;;;;22.98;9.95;;;0.90;99.90;;;;;;5034543;28;20056;-68
2021/12/03 02:11:23;;;;;;;21.08;9.63;;;0.60;99.90;;;;;;5017315;28;20045;-67
2021/12/03 02:13:50;;;;;;;21.40;10.18;;;0.60;99.90;;;;;;5034563;28;20046;-69
2021/12/03 02:16:17;;;;;;;23.58;9.75;;;0.60;99.90;;;;;;5034526;28;20073;-67
2021/12/03 02:18:43;;;;;;;20.42;9.85;;;0.60;99.90;;;;;;5017163;28;20108;-68
2021/12/03 02:21:10;;;;;;;23.10;10.13;;;0.60;99.90;;;;;;5034772;28;20052;-68
2021/12/03 02:23:37;;;;;;;22.35;11.00;;;0.70;99.90;;;;;;5016713;28;20140;-66
2021/12/03 02:26:03;;;;;;;26.33;10.45;;;0.70;99.90;;;;;;5016931;28;20079;-67
2021/12/03 02:28:32;;;;;;;28.67;9.98;;;0.90;99.90;;;;;;5034408;28;20048;-68
2021/12/03 02:30:58;;;;;;;22.38;10.43;;;0.70;99.90;;;;;;5000935;28;20132;-68
2021/12/03 02:33:24;;;;;;;27.58;11.63;;;0.70;99.90;;;;;;5015009;28;20173;-67
2021/12/03 02:35:50;;;;;;;27.05;10.63;;;0.70;99.90;;;;;;4997272;28;20054;-68
2021/12/03 02:38:19;;;;;;;24.15;9.73;;;0.90;99.90;;;;;;5015838;28;20054;-66
2021/12/03 02:40:45;;;;;;;26.60;11.35;;;0.70;99.90;;;;;;5014666;28;20119;-67
2021/12/03 02:43:11;;;;;;;24.02;10.93;;;0.70;99.90;;;;;;5018323;28;20328;-68
2021/12/03 02:45:37;;;;;;;31.25;11.43;;;0.80;99.90;;;;;;5018115;28;20125;-68
2021/12/03 02:48:04;;;;;;;26.00;12.63;;;0.80;99.90;;;;;;5000966;28;20038;-67
2021/12/03 02:50:30;;;;;;;34.03;14.65;;;0.80;99.90;;;;;;5018001;28;20077;-67
2021/12/03 02:52:56;;;;;;;33.55;14.35;;;0.80;99.90;;;;;;5017792;28;20184;-66
2021/12/03 02:55:22;;;;;;;34.65;16.33;;;0.80;99.90;;;;;;5000407;28;20061;-66
2021/12/03 02:57:48;;;;;;;37.25;19.13;;;0.90;99.90;;;;;;5000885;28;20056;-67
2021/12/03 03:00:17;;;;;;;45.47;20.70;;;0.80;99.90;;;;;;5030262;28;20151;-69
2021/12/03 03:02:44;;;;;;;49.20;21.70;;;0.80;99.90;;;;;;5037831;28;20046;-67
2021/12/03 03:05:11;;;;;;;50.97;24.42;;;0.80;99.90;;;;;;5020384;28;20045;-67
2021/12/03 03:07:37;;;;;;;58.03;26.02;;;0.90;99.90;;;;;;5020132;28;20374;-68
2021/12/03 03:10:08;;;;;;;52.22;25.45;;;0.90;99.90;;;;;;5037813;28;20368;-66
2021/12/03 03:12:34;;;;;;;58.80;28.35;;;1.00;99.90;;;;;;5020606;28;20367;-67
2021/12/03 03:15:00;;;;;;;59.67;29.73;;;1.00;99.90;;;;;;5037556;28;20049;-69
2021/12/03 03:17:29;;;;;;;81.50;33.20;;;1.00;99.90;;;;;;5019810;28;20037;-68
2021/12/03 03:19:56;;;;;;;67.97;33.60;;;1.00;99.90;;;;;;5019833;28;20127;-66
2021/12/03 03:22:23;;;;;;;75.70;32.35;;;1.00;99.90;;;;;;5020039;28;20486;-67
2021/12/03 03:24:49;;;;;;;66.32;30.08;;;1.00;99.90;;;;;;5037049;28;20057;-68
2021/12/03 03:27:16;;;;;;;72.05;30.52;;;1.00;99.90;;;;;;5019936;28;20088;-66
2021/12/03 03:29:44;;;;;;;77.05;32.45;;;1.00;99.90;;;;;;5033462;28;20511;-68
2021/12/03 03:32:10;;;;;;;63.92;32.28;;;1.00;99.90;;;;;;5019441;28;20120;-67
2021/12/03 03:34:36;;;;;;;73.18;32.72;;;1.00;99.90;;;;;;5019232;28;20045;-68
2021/12/03 03:37:02;;;;;;;61.92;32.40;;;1.00;99.90;;;;;;5037317;28;20378;-67
2021/12/03 03:39:28;;;;;;;61.45;32.22;;;1.00;99.90;;;;;;5019311;28;20056;-67
2021/12/03 03:41:54;;;;;;;61.20;30.80;;;1.00;99.90;;;;;;5036800;28;20049;-69
2021/12/03 03:44:20;;;;;;;71.68;34.25;;;1.00;99.90;;;;;;5019348;28;20132;-66
2021/12/03 03:46:48;;;;;;;54.70;30.90;;;1.00;99.90;;;;;;5019564;28;20103;-68
2021/12/03 03:49:14;;;;;;;82.70;34.47;;;1.00;99.90;;;;;;5036434;28;20037;-67
2021/12/03 03:51:40;;;;;;;57.13;32.55;;;1.20;99.90;;;;;;5036389;28;20505;-68
2021/12/03 03:54:05;;;;;;;63.85;32.47;;;1.00;99.90;;;;;;5018906;28;20045;-68
2021/12/03 03:56:31;;;;;;;63.55;32.00;;;1.00;99.90;;;;;;5019058;28;20053;-67
2021/12/03 03:58:57;;;;;;;65.53;34.17;;;1.00;99.90;;;;;;5025193;28;20053;-67
2021/12/03 04:01:22;;;;;;;62.90;33.67;;;1.00;99.90;;;;;;4999227;28;20069;-67
2021/12/03 04:03:49;;;;;;;52.80;30.92;;;1.00;99.90;;;;;;4999408;28;20053;-68
2021/12/03 04:06:18;;;;;;;59.28;34.67;;;1.00;99.90;;;;;;5016484;28;20060;-67
2021/12/03 04:08:46;;;;;;;52.63;32.25;;;1.00;99.90;;;;;;5016352;28;20515;-66
2021/12/03 04:11:14;;;;;;;65.95;34.58;;;1.00;99.90;;;;;;4999340;28;20068;-66
2021/12/03 04:13:39;;;;;;;56.67;32.35;;;1.00;99.90;;;;;;5016469;28;20045;-67
2021/12/03 04:16:05;;;;;;;60.88;33.05;;;1.00;99.90;;;;;;4999471;28;20072;-67
2021/12/03 04:18:31;;;;;;;59.42;32.67;;;0.90;99.90;;;;;;4998219;28;20049;-68
2021/12/03 04:20:57;;;;;;;57.78;34.30;;;0.90;99.90;;;;;;4997790;28;20050;-67
2021/12/03 04:23:23;;;;;;;59.50;34.03;;;1.00;99.90;;;;;;5016267;28;20050;-68
2021/12/03 04:25:50;;;;;;;49.42;31.48;;;0.90;99.90;;;;;;4999210;28;20362;-67
2021/12/03 04:28:18;;;;;;;50.78;31.48;;;0.90;99.90;;;;;;5016298;28;20470;-68
2021/12/03 04:30:44;;;;;;;48.22;30.80;;;0.90;99.90;;;;;;4998610;28;20088;-68
2021/12/03 04:33:10;;;;;;;49.40;32.17;;;0.90;99.90;;;;;;4999168;28;20100;-67
2021/12/03 04:35:36;;;;;;;48.53;30.40;;;0.90;99.90;;;;;;4999203;28;20422;-70
2021/12/03 04:38:03;;;;;;;45.95;29.75;;;0.90;99.90;;;;;;4998476;28;20046;-69
2021/12/03 04:40:29;;;;;;;50.05;30.98;;;0.90;99.90;;;;;;5015903;28;20049;-68
2021/12/03 04:42:55;;;;;;;50.72;31.52;;;0.90;99.90;;;;;;4998771;28;20432;-69
2021/12/03 04:45:22;;;;;;;47.40;29.83;;;0.90;99.90;;;;;;4998984;28;20128;-69
2021/12/03 04:47:50;;;;;;;46.33;30.33;;;0.90;99.90;;;;;;5015746;28;20085;-69
2021/12/03 04:50:17;;;;;;;45.22;29.40;;;0.90;99.90;;;;;;4982961;28;20053;-67
2021/12/03 04:52:44;;;;;;;46.40;30.85;;;1.30;99.90;;;;;;5015886;28;20050;-67
2021/12/03 04:55:10;;;;;;;44.70;29.30;;;0.90;99.90;;;;;;4998057;28;20486;-68
2021/12/03 04:57:36;;;;;;;46.97;30.38;;;0.90;99.90;;;;;;4982540;28;20054;-66
2021/12/03 05:00:05;;;;;;;43.75;30.40;;;0.90;99.90;;;;;;5033813;28;20369;-67
2021/12/03 05:02:31;;;;;;;47.88;30.73;;;0.90;99.90;;;;;;5018452;28;20103;-66
2021/12/03 05:05:01;;;;;;;44.17;30.52;;;0.80;99.90;;;;;;5034840;28;20120;-68
2021/12/03 05:07:30;;;;;;;46.95;31.63;;;0.80;99.90;;;;;;5035352;28;20045;-67
2021/12/03 05:09:56;;;;;;;45.08;29.88;;;0.80;99.90;;;;;;5018121;28;20484;-68
2021/12/03 05:12:22;;;;;;;44.33;31.00;;;0.80;99.90;;;;;;5017940;28;20049;-67
2021/12/03 05:14:47;;;;;;;53.40;32.33;;;0.80;99.90;;;;;;5017891;28;20446;-67
2021/12/03 05:17:13;;;;;;;50.97;31.70;;;0.80;99.90;;;;;;5035185;28;20056;-68
2021/12/03 05:19:38;;;;;;;53.78;33.28;;;0.80;99.90;;;;;;5018230;28;20061;-67
2021/12/03 05:22:04;;;;;;;50.72;31.73;;;0.80;99.90;;;;;;5035441;28;20481;-69
2021/12/03 05:24:30;;;;;;;44.00;28.42;;;0.80;99.90;;;;;;5018012;28;20049;-70
2021/12/03 05:26:55;;;;;;;47.78;32.38;;;0.80;99.90;;;;;;5017542;28;20120;-68
2021/12/03 05:29:22;;;;;;;41.30;29.00;;;0.80;99.90;;;;;;5002092;28;20049;-66
2021/12/03 05:31:48;;;;;;;45.63;30.35;;;0.80;99.90;;;;;;5015142;28;20040;-67
2021/12/03 05:34:15;;;;;;;52.92;32.17;;;0.80;99.90;;;;;;5015479;28;20125;-68
2021/12/03 05:36:41;;;;;;;47.15;31.77;;;0.80;99.90;;;;;;4998086;28;20053;-66
2021/12/03 05:39:07;;;;;;;41.97;28.65;;;0.80;99.90;;;;;;4998045;28;20046;-67
2021/12/03 05:41:34;;;;;;;46.95;30.50;;;0.90;99.90;;;;;;4997783;28;20443;-68
2021/12/03 05:44:00;;;;;;;48.25;29.60;;;0.90;99.90;;;;;;5015050;28;20054;-66
2021/12/03 05:46:26;;;;;;;48.40;31.58;;;0.90;99.90;;;;;;5015424;28;20340;-66
2021/12/03 05:48:52;;;;;;;43.97;28.67;;;0.90;99.90;;;;;;4998395;28;20153;-67
2021/12/03 05:51:18;;;;;;;46.38;29.17;;;1.00;99.90;;;;;;4998828;28;20050;-67
2021/12/03 05:53:44;;;;;;;52.15;31.58;;;1.00;99.90;;;;;;5010744;28;20062;-67
2021/12/03 05:56:09;;;;;;;54.67;30.33;;;1.00;99.90;;;;;;5035025;28;20084;-68
2021/12/03 05:58:35;;;;;;;46.40;28.77;;;1.10;99.90;;;;;;5034473;28;20053;-67
2021/12/03 06:01:01;;;;;;;50.05;29.77;;;1.10;99.90;;;;;;5017705;28;20080;-68
2021/12/03 06:03:27;;;;;;;43.90;28.50;;;1.10;99.90;;;;;;5000450;28;20049;-67
2021/12/03 06:05:52;;;;;;;41.15;29.10;;;1.10;99.90;;;;;;5034737;28;20041;-67
2021/12/03 06:08:18;;;;;;;46.10;29.02;;;1.10;99.90;;;;;;5017280;28;20077;-66
2021/12/03 06:10:44;;;;;;;49.10;30.20;;;1.10;99.90;;;;;;5013849;28;20448;-67
2021/12/03 06:13:10;;;;;;;52.55;31.17;;;1.10;99.90;;;;;;5013888;28;20104;-67
2021/12/03 06:15:36;;;;;;;40.95;26.60;;;1.50;99.90;;;;;;5014190;28;20086;-66
2021/12/03 06:18:03;;;;;;;47.17;28.85;;;1.10;99.90;;;;;;5017552;28;20456;-67
2021/12/03 06:20:29;;;;;;;48.90;27.90;;;1.10;99.90;;;;;;5017717;28;20112;-68
2021/12/03 06:22:54;;;;;;;46.58;27.55;;;1.10;99.90;;;;;;5018849;28;20374;-68
2021/12/03 06:25:20;;;;;;;50.35;28.65;;;1.10;99.90;;;;;;5017657;28;20057;-68
2021/12/03 06:27:46;;;;;;;49.08;26.83;;;1.10;99.90;;;;;;5018432;28;20053;-68
2021/12/03 06:30:18;;;;;;;45.65;27.67;;;1.30;99.90;;;;;;5018143;28;20470;-67
2021/12/03 06:32:44;;;;;;;39.88;25.80;;;1.20;99.90;;;;;;5017527;28;20046;-68
2021/12/03 06:35:11;;;;;;;41.58;23.67;;;1.20;99.90;;;;;;5017414;28;20061;-68
2021/12/03 06:37:37;;;;;;;46.47;26.05;;;1.20;99.90;;;;;;5017030;28;20053;-67
2021/12/03 06:40:06;;;;;;;39.05;23.90;;;1.20;99.90;;;;;;5017043;28;20046;-69
2021/12/03 06:42:32;;;;;;;37.65;24.70;;;1.20;99.90;;;;;;5000605;28;20133;-68
2021/12/03 06:44:58;;;;;;;35.85;23.08;;;1.20;99.90;;;;;;5017772;28;20124;-66
2021/12/03 06:47:23;;;;;;;33.72;22.08;;;1.20;99.90;;;;;;5000569;28;20052;-67
2021/12/03 06:49:49;;;;;;;38.10;23.05;;;1.30;99.90;;;;;;5123226;23;20073;-67
2021/12/03 06:52:16;;;;;;;37.10;23.55;;;1.30;99.90;;;;;;5000322;28;20041;-64
2021/12/03 06:54:43;;;;;;;35.75;22.45;;;1.30;99.90;;;;;;5000675;28;20133;-68
2021/12/03 06:57:10;;;;;;;34.78;21.42;;;1.40;99.90;;;;;;5017884;28;20133;-68
2021/12/03 06:59:37;;;;;;;39.03;22.52;;;1.40;99.90;;;;;;5017788;28;20045;-68
2021/12/03 07:02:03;;;;;;;41.22;22.05;;;1.40;99.90;;;;;;5000643;28;20064;-69
2021/12/03 07:04:29;;;;;;;41.15;22.52;;;1.50;99.90;;;;;;4996532;28;20070;-69
2021/12/03 07:06:54;;;;;;;38.05;21.25;;;1.50;99.90;;;;;;4981093;28;20082;-68
2021/12/03 07:09:20;;;;;;;31.92;21.00;;;1.50;99.90;;;;;;4980956;28;20472;-67
2021/12/03 07:11:46;;;;;;;35.50;20.90;;;1.60;99.90;;;;;;4981737;28;20048;-68
2021/12/03 07:14:11;;;;;;;35.70;22.98;;;1.60;99.90;;;;;;4978295;28;20046;-68
2021/12/03 07:16:37;;;;;;;31.83;19.88;;;1.70;99.90;;;;;;4994844;28;20027;-68
2021/12/03 07:19:04;;;;;;;34.08;20.20;;;2.40;99.90;;;;;;4996400;28;20096;-66
2021/12/03 07:21:30;;;;;;;32.65;19.45;;;1.70;99.90;;;;;;4984591;28;20478;-67
2021/12/03 07:23:56;;;;;;;35.53;19.33;;;1.80;99.90;;;;;;4996977;28;20096;-65
2021/12/03 07:26:24;;;;;;;31.55;18.38;;;1.70;99.90;;;;;;4996070;28;20050;-66
2021/12/03 07:28:51;;;;;;;33.28;18.40;;;1.70;99.90;;;;;;4995948;28;20050;-69
2021/12/03 07:31:16;;;;;;;29.33;17.67;;;2.20;99.90;;;;;;4997014;28;20049;-68
2021/12/03 07:33:42;;;;;;;33.30;17.38;;;1.70;99.90;;;;;;4997381;28;20042;-67
2021/12/03 07:36:08;;;;;;;31.02;17.70;;;1.70;99.90;;;;;;4980300;28;20416;-66
2021/12/03 07:38:36;;;;;;;30.60;15.43;;;1.70;99.90;;;;;;4997255;28;20140;-66
2021/12/03 07:41:02;;;;;;;28.13;15.48;;;1.70;99.90;;;;;;4980114;28;20049;-68
2021/12/03 07:43:28;;;;;;;30.65;16.02;;;1.70;99.90;;;;;;4996635;28;20077;-66
2021/12/03 07:45:54;;;;;;;30.80;14.18;;;1.80;99.90;;;;;;4979811;28;20046;-66
2021/12/03 07:48:23;;;;;;;26.33;13.38;;;1.80;99.90;;;;;;4999817;28;20061;-67
2021/12/03 07:50:50;;;;;;;29.58;14.73;;;2.00;99.90;;;;;;5016485;28;20390;-65
2021/12/03 07:53:18;;;;;;;20.50;13.00;;;1.90;99.90;;;;;;4997021;28;20367;-67
2021/12/03 07:55:44;;;;;;;35.58;16.00;;;1.90;99.90;;;;;;4996223;28;20076;-67
2021/12/03 07:58:11;;;;;;;23.90;14.18;;;1.90;99.90;;;;;;4996271;28;20034;-68
2021/12/03 08:00:37;;;;;;;33.08;15.30;;;1.90;99.90;;;;;;4979478;28;20050;-69
2021/12/03 08:03:03;;;;;;;24.20;14.57;;;1.90;99.90;;;;;;4980073;28;20415;-68
2021/12/03 08:05:29;;;;;;;26.75;14.30;;;1.90;99.90;;;;;;4979975;28;20466;-68
2021/12/03 08:07:55;;;;;;;35.78;15.48;;;2.00;99.90;;;;;;4996958;28;20053;-65
2021/12/03 08:10:20;;;;;;;33.28;15.73;;;2.00;99.90;;;;;;4998809;28;20137;-66
2021/12/03 08:12:47;;;;;;;29.63;14.48;;;2.00;99.90;;;;;;4998858;28;20046;-66
2021/12/03 08:15:15;;;;;;;27.80;15.30;;;2.00;99.90;;;;;;5016682;28;20053;-67
2021/12/03 08:17:41;;;;;;;23.33;14.30;;;2.00;99.90;;;;;;5015979;28;20049;-67
2021/12/03 08:20:07;;;;;;;30.63;14.57;;;2.10;99.90;;;;;;4999013;28;20042;-67
2021/12/03 08:22:34;;;;;;;21.83;12.80;;;2.00;99.90;;;;;;4998007;28;20782;-68
2021/12/03 08:25:00;;;;;;;27.35;13.75;;;2.10;99.90;;;;;;5015692;28;20050;-67
2021/12/03 08:27:25;;;;;;;31.75;15.00;;;2.10;99.90;;;;;;5015695;28;20370;-65
2021/12/03 08:29:51;;;;;;;29.45;14.07;;;2.10;99.90;;;;;;4998717;28;20049;-67
2021/12/03 08:32:17;;;;;;;27.27;13.88;;;2.20;99.90;;;;;;5015958;28;20050;-68
2021/12/03 08:34:42;;;;;;;27.15;13.65;;;2.20;99.90;;;;;;4998721;28;20050;-66
2021/12/03 08:37:09;;;;;;;29.08;15.18;;;2.20;99.90;;;;;;4998709;28;20054;-68
2021/12/03 08:39:34;;;;;;;22.95;12.48;;;2.20;99.90;;;;;;4998098;28;20057;-67
2021/12/03 08:42:00;;;;;;;29.08;14.43;;;2.30;99.90;;;;;;4978595;28;20046;-66
2021/12/03 08:44:26;;;;;;;31.60;14.32;;;2.30;99.90;;;;;;4978227;28;20129;-68
2021/12/03 08:47:06;;;;;;;26.65;15.35;;;2.30;99.90;;;;;;4995618;28;20078;-67
2021/12/03 08:49:51;;;;;;;28.00;15.50;;;2.40;99.90;;;;;;4977997;28;20050;-67
2021/12/03 08:54:52;;;;;;;31.95;16.13;;;2.50;99.90;;;;;;4996307;28;20141;-66
2021/12/03 08:57:27;;;;;;;40.95;16.45;;;2.50;99.90;;;;;;5014473;28;20141;-67
2021/12/03 08:59:55;;;;;;;34.08;15.38;;;2.60;99.90;;;;;;4996185;28;20050;-67
2021/12/03 09:02:22;;;;;;;32.72;17.08;;;2.60;99.90;;;;;;4977350;28;20049;-66
2021/12/03 09:04:48;;;;;;;28.00;15.75;;;2.60;99.90;;;;;;4994518;28;20061;-69
2021/12/03 09:07:14;;;;;;;31.73;16.88;;;2.70;99.90;;;;;;4995065;28;20080;-65
2021/12/03 09:09:41;;;;;;;36.78;18.70;;;2.70;99.90;;;;;;4978377;28;20206;-66
2021/12/03 09:12:07;;;;;;;46.20;19.20;;;2.70;99.90;;;;;;4994776;28;20394;-67
2021/12/03 09:14:40;;;;;;;36.72;18.05;;;2.80;99.90;;;;;;4977511;28;20124;-67
2021/12/03 09:17:24;;;;;;;39.22;19.95;;;2.80;99.90;;;;;;4995158;28;20060;-68
2021/12/03 09:25:09;;;;;;;37.60;20.15;;;2.90;99.90;;;;;;4978388;28;20068;-66
2021/12/03 09:27:35;;;;;;;38.53;20.85;;;2.90;99.90;;;;;;4978793;28;20057;-65
2021/12/03 09:30:02;;;;;;;47.22;22.13;;;2.90;99.90;;;;;;4978676;28;20340;-69
2021/12/03 09:32:31;;;;;;;35.08;20.98;;;3.00;99.90;;;;;;4978270;28;20038;-68
2021/12/03 09:34:57;;;;;;;44.42;21.88;;;3.00;99.90;;;;;;4995215;28;20407;-70
2021/12/03 09:37:23;;;;;;;40.40;21.63;;;3.00;99.90;;;;;;4995520;28;20064;-68
2021/12/03 09:39:50;;;;;;;41.30;21.58;;;3.00;99.90;;;;;;4998540;28;20378;-69
2021/12/03 09:42:18;;;;;;;47.38;24.52;;;3.10;99.90;;;;;;4979201;28;20069;-68
2021/12/03 09:44:45;;;;;;;48.28;24.33;;;3.10;99.90;;;;;;4983568;28;20069;-69
2021/12/03 09:47:14;;;;;;;40.70;23.98;;;3.10;99.90;;;;;;4995640;28;20042;-68
2021/12/03 09:49:41;;;;;;;48.28;25.08;;;3.10;99.90;;;;;;4994375;28;20086;-68
2021/12/03 09:54:43;;;;;;;43.90;25.70;;;3.10;99.90;;;;;;4999064;28;20050;-67
2021/12/03 09:57:14;;;;;;;42.65;25.42;;;3.10;99.90;;;;;;4998569;28;20054;-66
2021/12/03 10:00:05;;;;;;;39.17;25.25;;;3.40;99.90;;;;;;4998620;28;20061;-67
2021/12/03 10:02:54;;;;;;;42.58;24.75;;;3.20;99.90;;;;;;4999319;28;20402;-69
2021/12/03 10:05:56;;;;;;;46.50;24.38;;;3.20;99.90;;;;;;4963978;28;20474;-66
2021/12/03 10:13:25;;;;;;;42.65;22.85;;;3.30;99.90;;;;;;4998785;28;20141;-69
2021/12/03 10:16:13;;;;;;;47.42;22.60;;;3.40;99.90;;;;;;4999330;28;20347;-67
2021/12/03 10:21:59;;;;;;;43.20;22.00;;;3.50;99.90;;;;;;4998820;28;20526;-66
2021/12/03 10:24:52;;;;;;;36.38;20.75;;;3.60;99.90;;;;;;4965792;28;20065;-68
2021/12/03 10:33:36;;;;;;;40.72;20.13;;;3.60;99.90;;;;;;4998580;28;20060;-67
2021/12/03 10:41:19;;;;;;;43.05;18.92;;;3.60;99.90;;;;;;4996709;28;20081;-67
2021/12/03 10:57:45;;;;;;;32.28;17.20;;;3.80;99.90;;;;;;4996994;28;20652;-69
2021/12/03 11:00:50;;;;;;;;;;;3.80;99.90;;;;;;4981424;28;20073;-67
2021/12/03 11:03:58;;;;;;;24.23;12.65;;;3.80;99.90;;;;;;4995550;28;20000;-67
2021/12/03 11:21:04;;;;;;;35.78;10.90;;;3.90;99.90;;;;;;4979506;28;20060;-67
2021/12/03 11:29:07;;;;;;;22.77;7.97;;;4.00;99.90;;;;;;4979913;28;20141;-68
2021/12/03 11:39:34;;;;;;;24.60;8.50;;;4.00;99.90;;;;;;4996708;28;20100;-67
2021/12/03 11:49:01;;;;;;;20.85;7.68;;;3.90;99.90;;;;;;4977708;28;20058;-67
2021/12/03 11:59:47;;;;;;;19.35;7.00;;;4.00;99.90;;;;;;4996100;28;20434;-70
2021/12/03 12:05:35;;;;;;;26.30;7.38;;;4.00;99.90;;;;;;4979054;28;19922;-69
2021/12/03 12:11:24;;;;;;;20.15;8.27;;;3.90;99.90;;;;;;5003945;28;20050;-66
2021/12/03 12:16:57;;;;;;;20.77;7.35;;;3.90;99.90;;;;;;4995965;28;20054;-66
2021/12/03 12:44:21;;;;;;;19.67;7.28;;;3.60;99.90;;;;;;4976538;28;20487;-67
2021/12/03 13:28:03;;;;;;;17.80;9.20;;;3.60;99.90;;;;;;4994423;28;20050;-67
2021/12/03 14:05:32;;;;;;;14.80;8.45;;;3.70;99.90;;;;;;4997575;28;20355;-67
2021/12/03 14:38:52;;;;;;;20.20;8.60;;;3.90;99.90;;;;;;4981557;28;20058;-65
2021/12/03 14:42:22;;;;;;;17.38;8.20;;;3.90;99.90;;;;;;5008629;28;20041;-65
2021/12/03 14:55:36;;;;;;;15.70;9.35;;;4.00;99.90;;;;;;4998275;28;20129;-65
2021/12/03 14:58:10;;;;;;;17.30;8.73;;;4.00;99.90;;;;;;4997902;28;20097;-69
2021/12/03 15:03:22;;;;;;;14.65;9.18;;;4.00;99.90;;;;;;4997150;28;20054;-67
2021/12/03 15:06:12;;;;;;;14.95;8.80;;;4.00;99.90;;;;;;4997963;28;20046;-67
2021/12/03 15:08:49;;;;;;;19.63;10.13;;;4.00;99.90;;;;;;5013091;28;20046;-68
2021/12/03 15:24:42;;;;;;;15.25;10.43;;;4.10;99.90;;;;;;5017548;28;20502;-67
2021/12/03 15:32:40;;;;;;;16.63;10.25;;;4.20;99.90;;;;;;4997603;28;20058;-67
2021/12/03 15:37:49;;;;;;;18.92;10.75;;;4.20;99.90;;;;;;4994465;28;19932;-65
2021/12/03 15:40:38;;;;;;;18.48;11.30;;;4.20;99.90;;;;;;4980212;28;20103;-66
2021/12/03 16:04:32;;;;;;;14.57;10.73;;;4.30;99.90;;;;;;4995746;28;20058;-66
2021/12/03 16:07:18;;;;;;;19.08;12.38;;;4.30;99.90;;;;;;4997471;28;20395;-66
2021/12/03 16:12:31;;;;;;;24.42;17.10;;;4.30;99.90;;;;;;4995505;28;20053;-66
2021/12/03 16:20:16;;;;;;;20.38;14.13;;;4.30;99.90;;;;;;4996777;28;20054;-66
2021/12/03 16:23:15;;;;;;;22.52;15.15;;;4.30;99.90;;;;;;4979125;28;20501;-67
2021/12/03 16:45:07;;;;;;;26.10;19.05;;;4.30;99.90;;;;;;4998803;28;20049;-66
2021/12/03 16:52:46;;;;;;;28.15;18.60;;;4.30;99.90;;;;;;4998906;28;20069;-67
2021/12/03 16:55:12;;;;;;;31.02;20.40;;;4.30;99.90;;;;;;5015889;28;20050;-66
2021/12/03 16:57:42;;;;;;;29.70;21.27;;;4.30;99.90;;;;;;4985888;28;20058;-66
2021/12/03 17:00:34;;;;;;;25.75;19.63;;;4.30;99.90;;;;;;4979483;28;20057;-65
2021/12/03 17:08:55;;;;;;;28.55;20.67;;;4.30;99.90;;;;;;4978998;28;20061;-67
2021/12/03 17:16:55;;;;;;;28.52;21.27;;;4.30;99.90;;;;;;4995739;28;20054;-67
2021/12/03 17:25:05;;;;;;;37.00;24.15;;;4.30;99.90;;;;;;4995709;28;20050;-66
2021/12/03 17:46:48;;;;;;;37.33;27.25;;;4.40;99.90;;;;;;5014982;28;20132;-66
2021/12/03 17:49:19;;;;;;;34.58;26.52;;;4.40;99.90;;;;;;5015098;28;20107;-66
2021/12/03 17:57:02;;;;;;;38.30;28.75;;;4.40;99.90;;;;;;4997596;28;20532;-67
2021/12/03 17:59:36;;;;;;;36.80;27.20;;;4.40;99.90;;;;;;5015188;28;20058;-65
2021/12/03 18:10:42;;;;;;;36.35;26.88;;;4.40;99.90;;;;;;4997681;28;20058;-67
2021/12/03 18:43:34;;;;;;;37.90;28.15;;;5.20;99.90;;;;;;5018154;28;20050;-67
2021/12/03 18:48:49;;;;;;;49.40;32.08;;;4.50;99.90;;;;;;4980950;28;20046;-67
2021/12/03 18:51:23;;;;;;;43.92;30.65;;;4.60;99.90;;;;;;4998736;28;20134;-65
2021/12/03 18:54:18;;;;;;;42.05;31.00;;;4.60;99.90;;;;;;4998765;28;20133;-66
2021/12/03 18:56:49;;;;;;;44.85;30.33;;;4.50;99.90;;;;;;4982075;28;20054;-65
2021/12/03 18:59:15;;;;;;;46.28;30.45;;;4.60;99.90;;;;;;4998606;28;20130;-67
2021/12/03 19:01:41;;;;;;;46.70;31.02;;;4.60;99.90;;;;;;4998248;28;20129;-65
2021/12/03 19:06:59;;;;;;;42.58;28.20;;;4.60;99.90;;;;;;4981275;28;20537;-66
2021/12/03 19:09:27;;;;;;;42.05;29.58;;;4.60;99.90;;;;;;4981364;28;20054;-67
2021/12/03 19:12:07;;;;;;;47.53;33.15;;;4.60;99.90;;;;;;5001376;28;20403;-67
2021/12/03 19:14:41;;;;;;;56.08;35.53;;;4.60;99.90;;;;;;5003449;28;20065;-67
2021/12/03 19:17:08;;;;;;;51.78;33.03;;;4.60;99.90;;;;;;5016327;28;20435;-65
2021/12/03 19:19:41;;;;;;;45.90;29.95;;;4.60;99.90;;;;;;4999699;28;20049;-66
2021/12/03 19:22:07;;;;;;;50.10;32.80;;;4.60;99.90;;;;;;5000390;28;20057;-66
2021/12/03 19:24:33;;;;;;;45.58;29.20;;;4.60;99.90;;;;;;4999365;28;20443;-65
2021/12/03 19:26:59;;;;;;;52.58;30.83;;;4.60;99.90;;;;;;5017489;28;20139;-65
2021/12/03 19:29:25;;;;;;;47.60;30.15;;;4.60;99.90;;;;;;5000527;28;20204;-66